Time;durP1;ratioP1;P1;durP2;ratioP2;P2;SDS_P1;SDS_P2;PMS_P1;PMS_P2;Temp;Humidity;BMP_temperature;BMP_pressure;BME280_temperature;BME280_humidity;BME280_pressure;Samples;Min_cycle;Max_cycle;Signal;HPM_P1;HPM_P2
2022/03/28 00:00:21;;;;;;;5.47;3.47;;;;;;;22.79;47.31;99686.19;4931157;29;20043;-79
2022/03/28 00:02:51;;;;;;;5.30;3.78;;;;;;;22.78;48.35;99684.47;4931104;29;20059;-82
2022/03/28 00:05:19;;;;;;;5.00;3.28;;;;;;;22.76;48.26;99679.25;4932069;29;20571;-80
2022/03/28 00:07:48;;;;;;;4.60;3.42;;;;;;;22.77;47.76;99682.78;4931301;29;20059;-82
2022/03/28 00:10:16;;;;;;;4.00;3.15;;;;;;;22.76;47.51;99684.53;4931208;28;20086;-80
2022/03/28 00:12:44;;;;;;;5.10;3.35;;;;;;;22.75;47.70;99680.19;4882236;29;20084;-79
2022/03/28 00:15:13;;;;;;;4.65;3.33;;;;;;;22.71;48.06;99681.22;4897005;29;20104;-78
2022/03/28 00:17:41;;;;;;;4.97;3.53;;;;;;;22.67;47.63;99682.22;4894812;29;20052;-79
2022/03/28 00:20:13;;;;;;;7.82;3.50;;;;;;;22.63;48.50;99685.03;4893733;29;20052;-78
2022/03/28 00:22:42;;;;;;;6.77;3.50;;;;;;;22.59;49.33;99697.50;4895327;29;20113;-80
2022/03/28 00:25:11;;;;;;;4.82;3.40;;;;;;;22.53;49.20;99689.81;4897265;29;20091;-77
2022/03/28 00:27:41;;;;;;;4.80;3.70;;;;;;;22.48;49.66;99681.22;4897115;29;20083;-81
2022/03/28 00:30:11;;;;;;;4.90;3.83;;;;;;;22.44;50.59;99690.13;4897689;29;20478;-79
2022/03/28 00:32:39;;;;;;;5.03;3.90;;;;;;;22.37;50.34;99690.34;4896882;29;20088;-81
2022/03/28 00:35:09;;;;;;;5.57;3.70;;;;;;;22.32;50.73;99692.31;4897636;29;20108;-81
2022/03/28 00:37:41;;;;;;;6.82;4.13;;;;;;;22.24;51.24;99693.47;4897308;29;20469;-80
2022/03/28 00:40:11;;;;;;;6.50;4.20;;;;;;;22.16;51.86;99704.28;4896978;29;20052;-80
2022/03/28 00:42:40;;;;;;;6.82;3.90;;;;;;;22.07;52.32;99700.19;4897541;29;20052;-79
2022/03/28 00:45:09;;;;;;;5.88;3.55;;;;;;;22.03;52.53;99695.06;4896968;29;20139;-84
2022/03/28 00:47:38;;;;;;;7.03;3.83;;;;;;;21.96;53.12;99695.28;4897744;29;20048;-80
2022/03/28 00:50:07;;;;;;;5.43;3.95;;;;;;;21.91;53.19;99689.31;4897166;29;20121;-81
2022/03/28 00:52:36;;;;;;;7.90;3.35;;;;;;;21.85;53.84;99684.28;4897448;29;20119;-81
2022/03/28 00:55:08;;;;;;;6.53;3.60;;;;;;;21.82;53.92;99680.88;4897822;29;20053;-82
2022/03/28 00:57:36;;;;;;;5.32;3.85;;;;;;;21.73;54.39;99682.03;4897228;29;20504;-81
2022/03/28 01:00:09;;;;;;;8.13;4.15;;;;;;;21.68;54.65;99678.69;4897167;29;20482;-81
2022/03/28 01:02:38;;;;;;;4.72;3.42;;;;;;;21.62;55.14;99681.53;4896629;29;20056;-82
2022/03/28 01:05:07;;;;;;;6.68;3.40;;;;;;;21.55;55.05;99686.13;4897738;29;20054;-79
2022/03/28 01:07:37;;;;;;;4.57;3.40;;;;;;;21.49;55.29;99681.94;4899696;29;20048;-80
2022/03/28 01:10:09;;;;;;;4.18;3.08;;;;;;;21.47;55.55;99686.38;4897351;29;20084;-82
2022/03/28 01:12:38;;;;;;;5.43;3.08;;;;;;;21.45;55.79;99680.31;4928071;28;20052;-81
2022/03/28 01:15:07;;;;;;;5.88;3.67;;;;;;;21.46;54.71;99679.41;4927283;29;20055;-82
2022/03/28 01:20:21;;;;;;;7.43;3.50;;;;;;;21.36;55.77;99653.41;4918944;29;20629;-82
2022/03/28 01:22:51;;;;;;;4.88;3.10;;;;;;;21.32;56.12;99666.63;4933594;29;20048;-79
2022/03/28 01:25:24;;;;;;;7.50;3.17;;;;;;;21.22;56.27;99669.63;4934282;29;20074;-83
2022/03/28 01:27:54;;;;;;;7.15;3.20;;;;;;;21.08;58.18;99673.56;4934941;29;20087;-80
2022/03/28 01:30:23;;;;;;;5.05;3.10;;;;;;;20.94;57.72;99670.50;4919278;29;20075;-81
2022/03/28 01:32:52;;;;;;;5.40;2.88;;;;;;;20.84;58.44;99656.75;4915182;29;20084;-80
2022/03/28 01:35:31;;;;;;;5.57;3.47;;;;;;;20.77;59.61;99656.97;4914305;29;20056;-82
2022/03/28 01:38:03;;;;;;;5.38;3.47;;;;;;;20.74;58.60;99663.19;4916018;29;20119;-82
2022/03/28 01:40:32;;;;;;;6.13;3.50;;;;;;;20.74;58.08;99659.72;4916001;29;20462;-82
2022/03/28 01:43:01;;;;;;;7.18;3.35;;;;;;;20.73;57.90;99658.84;4915169;29;20195;-81
2022/03/28 01:45:30;;;;;;;4.68;3.65;;;;;;;20.69;58.43;99639.69;4915848;29;20056;-80
2022/03/28 01:47:59;;;;;;;3.50;2.80;;;;;;;20.67;58.72;99636.22;4934398;29;20099;-80
2022/03/28 01:50:27;;;;;;;6.10;3.30;;;;;;;20.48;59.75;99635.03;4933343;29;20486;-74
2022/03/28 01:52:56;;;;;;;6.55;3.13;;;;;;;20.37;60.29;99637.09;4932890;29;20048;-75
2022/03/28 01:55:26;;;;;;;9.75;3.38;;;;;;;20.26;60.94;99651.38;4934000;29;20755;-75
2022/03/28 01:57:55;;;;;;;5.07;3.33;;;;;;;20.23;61.72;99685.63;4933824;29;20135;-76
2022/03/28 02:00:28;;;;;;;5.28;4.20;;;;;;;20.21;61.47;99690.06;4936720;29;20052;-74
2022/03/28 02:02:57;;;;;;;5.75;3.92;;;;;;;20.13;61.33;99686.75;4933744;29;20043;-75
2022/03/28 02:05:25;;;;;;;5.82;4.00;;;;;;;20.08;61.70;99697.38;4933672;29;20086;-75
2022/03/28 02:07:53;;;;;;;7.53;3.90;;;;;;;20.01;60.49;99710.72;4933055;29;20079;-75
2022/03/28 02:10:23;;;;;;;5.28;3.70;;;;;;;19.94;61.34;99709.16;4933138;29;20142;-76
2022/03/28 02:12:54;;;;;;;5.95;4.43;;;;;;;19.92;62.09;99713.59;4932643;29;20146;-76
2022/03/28 02:15:23;;;;;;;6.15;4.05;;;;;;;19.86;62.49;99710.22;4932687;29;20115;-75
2022/03/28 02:17:51;;;;;;;8.02;3.88;;;;;;;19.83;62.60;99715.53;4932862;29;20456;-75
2022/03/28 02:20:21;;;;;;;8.10;3.80;;;;;;;19.79;62.16;99718.28;4932717;29;20051;-75
2022/03/28 02:22:49;;;;;;;5.25;3.80;;;;;;;19.75;62.35;99717.50;4933075;29;20055;-75
2022/03/28 02:25:18;;;;;;;6.43;3.50;;;;;;;19.71;61.82;99715.84;4932529;29;20056;-75
2022/03/28 02:27:47;;;;;;;5.38;3.55;;;;;;;19.67;62.44;99719.41;4933105;29;20498;-75
2022/03/28 02:30:17;;;;;;;5.07;3.83;;;;;;;19.63;62.24;99723.00;4932573;29;20051;-75
2022/03/28 02:32:45;;;;;;;7.05;4.05;;;;;;;19.62;62.03;99721.28;4932495;29;20490;-76
2022/03/28 02:35:14;;;;;;;5.55;3.97;;;;;;;19.59;62.08;99727.47;4933070;29;20091;-75
2022/03/28 02:37:43;;;;;;;5.72;3.72;;;;;;;19.57;62.32;99723.19;4932350;29;20170;-76
2022/03/28 02:40:13;;;;;;;6.20;3.80;;;;;;;19.55;62.11;99724.97;4932963;29;20060;-74
2022/03/28 02:42:41;;;;;;;6.90;3.92;;;;;;;19.51;61.98;99718.91;4932327;29;20446;-73
2022/03/28 02:45:10;;;;;;;5.22;3.53;;;;;;;19.47;61.66;99719.91;4932906;29;20059;-74
2022/03/28 02:47:40;;;;;;;5.20;3.70;;;;;;;19.43;61.92;99716.50;4927978;29;20107;-74
2022/03/28 02:50:10;;;;;;;5.25;3.30;;;;;;;19.38;63.09;99712.25;4913614;29;20088;-73
2022/03/28 02:52:38;;;;;;;7.78;3.17;;;;;;;19.30;62.78;99719.44;4925664;29;20059;-75
2022/03/28 02:55:08;;;;;;;5.85;3.70;;;;;;;19.22;62.44;99715.22;4934337;29;20506;-74
2022/03/28 02:57:36;;;;;;;6.13;3.50;;;;;;;19.13;62.78;99715.44;4933104;29;20079;-74
2022/03/28 03:00:07;;;;;;;7.28;3.65;;;;;;;19.08;63.26;99719.03;4932641;29;20052;-75
2022/03/28 03:02:36;;;;;;;7.78;3.80;;;;;;;19.07;64.40;99719.94;4932496;29;20087;-74
2022/03/28 03:05:08;;;;;;;11.27;4.20;;;;;;;19.05;64.44;99706.84;4932713;29;20090;-74
2022/03/28 03:07:37;;;;;;;6.60;3.58;;;;;;;19.02;64.92;99705.16;4932267;29;20497;-74
2022/03/28 03:10:06;;;;;;;5.18;3.63;;;;;;;19.00;65.20;99719.22;4932214;29;20553;-74
2022/03/28 03:12:41;;;;;;;7.22;3.53;;;;;;;18.98;65.63;99724.47;4932260;28;20059;-74
2022/03/28 03:15:10;;;;;;;6.35;3.35;;;;;;;18.97;65.56;99738.50;4926115;29;20545;-74
2022/03/28 03:17:39;;;;;;;12.38;6.30;;;;;;;18.86;66.81;99737.84;4932010;29;20506;-74
2022/03/28 03:20:10;;;;;;;9.77;5.45;;;;;;;18.73;67.89;99741.59;4931955;29;20123;-75
2022/03/28 03:22:38;;;;;;;9.32;4.78;;;;;;;18.62;68.26;99737.44;4931888;29;20043;-75
2022/03/28 03:25:07;;;;;;;11.35;4.40;;;;;;;18.56;68.05;99732.31;4931866;29;20052;-76
2022/03/28 03:27:38;;;;;;;9.40;4.00;;;;;;;18.54;68.33;99739.31;4931743;29;20048;-75
2022/03/28 03:30:11;;;;;;;6.10;3.42;;;;;;;18.53;68.49;99742.84;4931870;29;20055;-75
2022/03/28 03:32:40;;;;;;;4.47;3.50;;;;;;;18.52;68.25;99745.50;4931259;29;20509;-74
2022/03/28 03:35:11;;;;;;;7.85;3.75;;;;;;;18.48;69.02;99743.81;4931156;29;20106;-73
2022/03/28 03:37:40;;;;;;;6.10;4.10;;;;;;;18.48;69.59;99755.16;4931573;29;20086;-75
2022/03/28 03:40:15;;;;;;;6.20;3.28;;;;;;;18.46;69.00;99756.94;4931640;29;20115;-74
2022/03/28 03:42:44;;;;;;;7.35;3.40;;;;;;;18.43;69.15;99757.00;4931635;29;20098;-74
2022/03/28 03:45:14;;;;;;;7.63;4.00;;;;;;;18.41;69.53;99745.69;4932340;29;20488;-74
2022/03/28 03:47:42;;;;;;;6.30;3.40;;;;;;;18.40;69.66;99750.06;4934724;29;20052;-73
2022/03/28 03:50:13;;;;;;;6.53;3.47;;;;;;;18.39;69.76;99752.69;4931892;29;20058;-75
2022/03/28 03:52:41;;;;;;;8.68;4.28;;;;;;;18.33;69.46;99734.50;4931724;29;20044;-73
2022/03/28 03:55:10;;;;;;;8.45;3.75;;;;;;;18.29;69.84;99735.44;4931756;29;20146;-77
2022/03/28 03:57:39;;;;;;;7.13;4.28;;;;;;;18.27;69.85;99734.59;4931538;29;20492;-73
2022/03/28 04:00:09;;;;;;;8.63;4.32;;;;;;;18.25;70.21;99725.91;4931793;29;20485;-74
2022/03/28 04:02:37;;;;;;;9.60;3.78;;;;;;;18.15;69.93;99715.63;4931502;29;20079;-75
2022/03/28 04:05:06;;;;;;;8.02;4.47;;;;;;;18.17;70.66;99711.22;4931379;29;20178;-77
2022/03/28 04:07:36;;;;;;;7.00;4.35;;;;;;;18.15;71.36;99701.66;4931367;29;20059;-75
2022/03/28 04:10:06;;;;;;;7.68;4.60;;;;;;;18.11;71.67;99695.59;4931570;29;20044;-75
2022/03/28 04:12:34;;;;;;;7.03;4.60;;;;;;;18.06;72.23;99686.97;4930994;28;20494;-82
2022/03/28 04:15:02;;;;;;;10.20;5.78;;;;;;;18.01;72.44;99691.44;4930687;29;20102;-76
2022/03/28 04:17:31;;;;;;;13.35;6.00;;;;;;;17.98;72.66;99684.53;4931731;29;20094;-76
2022/03/28 04:20:00;;;;;;;15.70;6.82;;;;;;;17.93;72.35;99677.63;4931761;29;20482;-75
2022/03/28 04:22:28;;;;;;;13.77;6.28;;;;;;;17.89;72.61;99681.19;4930720;29;20083;-76
2022/03/28 04:24:58;;;;;;;12.52;6.25;;;;;;;17.86;72.00;99678.63;4931007;29;20056;-74
2022/03/28 04:27:27;;;;;;;15.13;6.45;;;;;;;17.80;72.53;99682.19;4931493;29;20059;-76
2022/03/28 04:29:55;;;;;;;12.95;5.85;;;;;;;17.73;72.98;99686.66;4931017;29;20051;-76
2022/03/28 04:32:23;;;;;;;9.82;5.50;;;;;;;17.65;73.71;99693.75;4930956;29;20075;-75
2022/03/28 04:34:52;;;;;;;9.77;5.13;;;;;;;17.52;73.89;99681.75;4931043;29;20103;-75
2022/03/28 04:37:21;;;;;;;8.73;4.28;;;;;;;17.50;75.02;99687.03;4931486;29;20048;-75
2022/03/28 04:39:49;;;;;;;7.10;4.10;;;;;;;17.40;75.50;99690.69;4931982;29;20051;-77
2022/03/28 04:42:19;;;;;;;6.75;3.30;;;;;;;17.34;76.24;99689.03;4933652;29;20143;-75
2022/03/28 04:44:48;;;;;;;7.50;3.90;;;;;;;17.26;76.23;99680.44;4931737;29;20123;-76
2022/03/28 04:47:16;;;;;;;5.05;3.70;;;;;;;17.15;78.02;99682.34;4931493;29;20048;-74
2022/03/28 04:49:45;;;;;;;5.88;2.65;;;;;;;17.01;76.98;99686.91;4931219;29;20106;-75
2022/03/28 04:52:13;;;;;;;6.90;3.00;;;;;;;16.93;77.11;99680.03;4930671;29;20935;-76
2022/03/28 04:54:42;;;;;;;5.28;2.78;;;;;;;16.94;77.01;99688.72;4931119;29;20534;-75
2022/03/28 04:57:10;;;;;;;5.93;2.40;;;;;;;16.94;75.99;99693.97;4930620;29;20057;-77
2022/03/28 04:59:40;;;;;;;4.28;2.20;;;;;;;16.91;74.45;99694.00;4930812;29;20067;-75
2022/03/28 05:02:09;;;;;;;4.60;2.28;;;;;;;16.88;74.78;99700.16;4930932;29;20044;-76
2022/03/28 05:04:37;;;;;;;5.13;2.33;;;;;;;16.82;73.60;99702.81;4930514;29;20298;-73
2022/03/28 05:07:06;;;;;;;5.07;2.22;;;;;;;16.88;72.79;99723.66;4931190;29;20118;-74
2022/03/28 05:09:35;;;;;;;3.60;2.10;;;;;;;16.89;73.12;99727.97;4931511;29;20054;-75
2022/03/28 05:12:03;;;;;;;3.30;2.10;;;;;;;16.88;72.91;99728.88;4934115;28;20047;-76
2022/03/28 05:14:32;;;;;;;12.55;5.38;;;;;;;16.90;73.82;99727.09;4934141;29;20107;-75
2022/03/28 05:17:02;;;;;;;4.50;3.08;;;;;;;16.92;75.06;99725.31;4933941;29;20466;-74
2022/03/28 05:19:30;;;;;;;7.40;2.95;;;;;;;16.92;74.87;99722.72;4934755;29;20047;-73
2022/03/28 05:21:59;;;;;;;6.35;3.20;;;;;;;16.94;76.59;99720.09;4934147;29;20457;-77
2022/03/28 05:24:28;;;;;;;5.20;3.10;;;;;;;16.98;77.44;99731.38;4934015;29;20118;-76
2022/03/28 05:26:56;;;;;;;5.32;2.75;;;;;;;17.01;77.02;99728.72;4933869;29;20082;-75
2022/03/28 05:29:25;;;;;;;5.65;3.20;;;;;;;17.01;76.93;99729.56;4933899;29;20494;-78
2022/03/28 05:31:53;;;;;;;7.40;2.92;;;;;;;17.03;77.38;99740.00;4933369;29;20577;-79
2022/03/28 05:34:23;;;;;;;9.25;3.20;;;;;;;17.03;77.02;99746.09;4935385;29;20080;-79
2022/03/28 05:36:52;;;;;;;6.47;3.25;;;;;;;17.05;77.49;99748.69;4935954;29;20067;-80
2022/03/28 05:39:21;;;;;;;4.03;2.80;;;;;;;16.95;76.73;99733.16;4934952;29;20090;-80
2022/03/28 05:41:49;;;;;;;7.03;3.17;;;;;;;17.00;76.74;99742.69;4933834;29;20115;-80
2022/03/28 05:44:17;;;;;;;5.10;2.80;;;;;;;16.93;77.01;99744.50;4933457;29;20060;-80
2022/03/28 05:46:48;;;;;;;6.18;2.78;;;;;;;16.88;76.96;99752.41;4934015;29;20079;-81
2022/03/28 05:49:16;;;;;;;5.38;2.53;;;;;;;16.85;77.59;99752.41;4933465;29;20089;-81
2022/03/28 05:51:46;;;;;;;5.00;2.58;;;;;;;16.83;77.89;99743.72;4933829;29;20154;-80
2022/03/28 05:54:15;;;;;;;4.90;2.83;;;;;;;16.80;77.23;99749.00;4933311;29;20072;-80
2022/03/28 05:56:43;;;;;;;6.40;2.95;;;;;;;16.79;77.64;99757.72;4933317;29;20048;-80
2022/03/28 05:59:12;;;;;;;7.47;2.83;;;;;;;16.78;77.52;99755.94;4934346;29;20485;-80
2022/03/28 06:01:41;;;;;;;4.70;2.38;;;;;;;16.74;77.55;99756.88;4933751;29;20055;-80
2022/03/28 06:04:09;;;;;;;7.07;2.65;;;;;;;16.67;78.06;99763.91;4933464;29;20099;-80
2022/03/28 06:06:38;;;;;;;4.50;2.97;;;;;;;16.60;78.84;99777.06;4933262;29;20051;-81
2022/03/28 06:09:08;;;;;;;6.72;2.83;;;;;;;16.55;78.90;99772.75;4933105;29;20050;-81
2022/03/28 06:11:37;;;;;;;5.80;3.00;;;;;;;16.55;78.61;99779.72;4933196;28;20055;-80
2022/03/28 06:14:05;;;;;;;3.30;2.47;;;;;;;16.54;78.57;99784.09;4933048;29;20163;-78
2022/03/28 06:16:34;;;;;;;6.28;3.13;;;;;;;16.51;78.77;99781.47;4933553;29;20506;-79
2022/03/28 06:19:02;;;;;;;6.65;2.53;;;;;;;16.49;78.67;99788.50;4933309;29;20090;-79
2022/03/28 06:21:31;;;;;;;8.30;3.25;;;;;;;16.47;79.33;99792.88;4932689;29;20051;-79
2022/03/28 06:24:00;;;;;;;8.38;2.88;;;;;;;16.44;79.58;99800.72;4932471;29;20501;-79
2022/03/28 06:26:30;;;;;;;8.45;3.85;;;;;;;16.42;79.54;99799.00;4933042;29;20106;-80
2022/03/28 06:28:58;;;;;;;12.52;3.67;;;;;;;16.37;80.31;99800.78;4933923;29;20123;-79
2022/03/28 06:31:27;;;;;;;24.80;5.80;;;;;;;16.37;81.89;99803.41;4935431;29;20048;-79
2022/03/28 06:34:01;;;;;;;19.77;5.18;;;;;;;16.35;82.18;99798.19;4933173;29;20083;-79
2022/03/28 06:36:30;;;;;;;22.25;4.72;;;;;;;16.32;82.17;99795.63;4933185;29;20498;-81
2022/03/28 06:39:00;;;;;;;15.18;4.05;;;;;;;16.27;81.58;99794.81;4933536;29;20059;-81
2022/03/28 06:41:30;;;;;;;18.85;4.93;;;;;;;16.21;81.83;99797.47;4931884;29;20051;-80
2022/03/28 06:43:58;;;;;;;18.92;4.47;;;;;;;16.16;82.77;99802.72;4932318;29;20111;-81
2022/03/28 06:46:27;;;;;;;16.42;3.75;;;;;;;16.16;81.08;99801.84;4933246;29;20083;-80
2022/03/28 06:48:57;;;;;;;8.13;3.00;;;;;;;16.15;81.06;99806.22;4932789;29;20548;-80
2022/03/28 06:51:26;;;;;;;11.07;3.25;;;;;;;16.09;79.52;99811.47;4932863;29;20135;-81
2022/03/28 06:53:54;;;;;;;8.70;3.40;;;;;;;16.03;80.47;99812.38;4932543;29;20058;-79
2022/03/28 06:56:22;;;;;;;12.07;3.83;;;;;;;15.95;81.55;99813.34;4932482;29;20067;-80
2022/03/28 06:58:53;;;;;;;6.63;2.65;;;;;;;15.84;82.45;99814.25;4932267;29;20554;-81
2022/03/28 07:01:22;;;;;;;7.82;2.70;;;;;;;15.74;82.92;99809.16;4932699;29;20126;-81
2022/03/28 07:03:50;;;;;;;6.47;2.88;;;;;;;15.72;83.40;99805.69;4932366;29;20059;-81
2022/03/28 07:06:19;;;;;;;5.40;2.03;;;;;;;15.69;80.66;99799.56;4932298;29;20075;-80
2022/03/28 07:08:47;;;;;;;3.40;1.95;;;;;;;15.70;77.14;99803.94;4931756;29;20496;-81
2022/03/28 07:11:16;;;;;;;3.97;1.70;;;;;;;15.68;74.87;99805.66;4933039;28;20158;-80
2022/03/28 07:13:44;;;;;;;4.50;1.70;;;;;;;15.67;74.81;99803.94;4931818;29;20127;-79
2022/03/28 07:16:14;;;;;;;5.38;1.67;;;;;;;15.68;76.17;99804.78;4932519;29;20052;-79
2022/03/28 07:18:42;;;;;;;3.92;2.10;;;;;;;15.64;78.57;99803.94;4932535;29;20052;-81
2022/03/28 07:21:11;;;;;;;3.47;1.88;;;;;;;15.61;77.50;99814.38;4931793;29;20541;-79
2022/03/28 07:23:39;;;;;;;5.10;1.88;;;;;;;15.58;74.64;99814.41;4932546;29;20048;-80
2022/03/28 07:26:10;;;;;;;3.67;1.60;;;;;;;15.58;74.20;99830.06;4935348;29;20087;-80
2022/03/28 07:28:39;;;;;;;3.05;1.75;;;;;;;15.56;73.75;99831.81;4933119;29;20083;-80
2022/03/28 07:31:08;;;;;;;5.85;2.10;;;;;;;15.50;78.65;99839.66;4932249;29;20680;-80
2022/03/28 07:33:40;;;;;;;5.30;1.90;;;;;;;15.41;77.42;99842.31;4931785;29;20056;-80
2022/03/28 07:36:09;;;;;;;3.95;1.50;;;;;;;15.31;76.12;99845.84;4931958;29;20055;-79
2022/03/28 07:38:38;;;;;;;5.70;1.75;;;;;;;15.22;77.03;99846.75;4932153;29;20050;-80
2022/03/28 07:41:07;;;;;;;2.85;2.08;;;;;;;15.16;78.85;99858.03;4932317;29;20083;-80
2022/03/28 07:43:35;;;;;;;5.30;1.63;;;;;;;15.06;77.91;99857.22;4932138;29;20099;-79
2022/03/28 07:46:04;;;;;;;3.75;1.75;;;;;;;15.02;78.12;99852.00;4932161;29;20048;-79
2022/03/28 07:48:32;;;;;;;6.15;1.65;;;;;;;15.02;79.16;99854.63;4931563;29;20058;-79
2022/03/28 07:51:03;;;;;;;4.78;1.77;;;;;;;14.98;80.34;99860.72;4931395;29;20558;-79
2022/03/28 07:53:32;;;;;;;5.45;1.85;;;;;;;14.91;80.03;99861.59;4931641;29;20055;-78
2022/03/28 07:56:01;;;;;;;4.20;2.00;;;;;;;14.89;80.04;99861.63;4931560;29;20450;-79
2022/03/28 07:58:29;;;;;;;5.85;2.17;;;;;;;14.86;80.76;99870.28;4931897;29;20119;-79
2022/03/28 08:00:58;;;;;;;3.60;2.03;;;;;;;14.85;80.78;99873.78;4931678;29;20083;-80
2022/03/28 08:03:26;;;;;;;3.88;1.98;;;;;;;14.83;80.68;99865.09;4931518;29;20048;-80
2022/03/28 08:05:55;;;;;;;6.07;2.35;;;;;;;14.81;80.84;99879.00;4931113;29;20047;-80
2022/03/28 08:08:25;;;;;;;3.20;1.67;;;;;;;14.77;79.44;99875.50;4931148;29;20126;-80
2022/03/28 08:10:53;;;;;;;2.55;1.40;;;;;;;14.75;78.28;99879.88;4931608;29;20051;-80
2022/03/28 08:13:22;;;;;;;3.50;1.42;;;;;;;14.69;77.39;99881.63;4931347;28;20056;-79
2022/03/28 08:15:50;;;;;;;2.15;1.63;;;;;;;14.61;76.85;99884.22;4930847;29;20458;-80
2022/03/28 08:18:19;;;;;;;3.92;1.48;;;;;;;14.64;76.41;99886.84;4932117;29;20470;-80
2022/03/28 08:20:47;;;;;;;2.83;1.40;;;;;;;14.66;76.29;99893.78;4935253;29;20052;-80
2022/03/28 08:23:19;;;;;;;3.83;1.48;;;;;;;14.64;74.97;99892.03;4932079;29;20094;-80
2022/03/28 08:25:50;;;;;;;3.28;1.10;;;;;;;14.60;74.96;99887.69;4932330;29;20051;-79
2022/03/28 08:28:19;;;;;;;2.38;1.00;;;;;;;14.62;75.09;99879.00;4932002;29;20082;-79
2022/03/28 08:30:47;;;;;;;3.53;1.60;;;;;;;14.63;77.08;99885.09;4931350;29;20047;-80
2022/03/28 08:33:16;;;;;;;5.55;1.50;;;;;;;14.67;78.16;99894.63;4931396;29;20092;-79
2022/03/28 08:35:44;;;;;;;4.47;1.45;;;;;;;14.69;77.27;99892.91;4931232;29;20103;-80
2022/03/28 08:38:13;;;;;;;9.73;1.83;;;;;;;14.69;77.60;99890.28;4931726;29;20139;-80
2022/03/28 08:40:43;;;;;;;4.30;1.45;;;;;;;14.70;77.45;99898.97;4931047;29;20422;-80
2022/03/28 08:43:19;;;;;;;3.28;1.67;;;;;;;14.67;76.95;99899.84;4931139;29;20048;-79
2022/03/28 08:45:50;;;;;;;6.10;1.33;;;;;;;14.68;76.82;99898.97;4934334;29;20095;-79
2022/03/28 08:48:18;;;;;;;1.98;1.05;;;;;;;14.63;75.85;99887.69;4937580;29;20082;-79
2022/03/28 08:50:49;;;;;;;7.88;1.55;;;;;;;14.64;76.60;99899.84;4935677;29;20063;-80
2022/03/28 08:53:18;;;;;;;3.17;1.30;;;;;;;14.63;76.30;99903.31;4935316;29;20082;-80
2022/03/28 08:55:48;;;;;;;5.00;1.27;;;;;;;14.60;75.97;99905.94;4935101;29;20075;-80
2022/03/28 08:58:18;;;;;;;3.97;1.77;;;;;;;14.54;76.00;99903.28;4935052;29;20118;-79
2022/03/28 09:00:46;;;;;;;4.43;1.17;;;;;;;14.49;77.68;99910.22;4935447;29;20048;-78
2022/03/28 09:03:15;;;;;;;3.58;1.25;;;;;;;14.42;77.60;99905.00;4934643;29;20087;-78
2022/03/28 09:05:47;;;;;;;2.75;1.27;;;;;;;14.41;77.43;99910.25;4935038;29;20105;-78
2022/03/28 09:08:15;;;;;;;5.35;1.15;;;;;;;14.36;77.79;99910.25;4935034;29;20096;-78
2022/03/28 09:10:48;;;;;;;5.13;1.35;;;;;;;14.37;78.33;99898.94;4933502;29;20043;-78
2022/03/28 09:13:19;;;;;;;2.30;1.05;;;;;;;14.39;77.73;99893.75;4934213;28;20143;-78
2022/03/28 09:15:53;;;;;;;2.13;1.42;;;;;;;14.33;77.39;99872.94;4937371;29;20126;-79
2022/03/28 09:18:27;;;;;;;3.38;1.35;;;;;;;14.35;77.11;99887.66;4935681;29;20056;-80
2022/03/28 09:20:57;;;;;;;3.58;1.63;;;;;;;14.33;77.26;99886.78;4935420;29;20471;-79
2022/03/28 09:23:35;;;;;;;2.45;1.30;;;;;;;14.33;77.85;99897.22;4934499;29;20079;-80
2022/03/28 09:26:12;;;;;;;3.15;1.35;;;;;;;14.32;77.67;99895.47;4934711;29;20646;-79
2022/03/28 09:28:49;;;;;;;4.40;1.50;;;;;;;14.31;77.98;99888.53;4934088;29;20055;-78
2022/03/28 09:31:22;;;;;;;6.93;1.52;;;;;;;14.24;79.24;99895.47;4934691;29;20056;-79
2022/03/28 09:33:58;;;;;;;2.67;1.20;;;;;;;14.14;78.49;99887.66;4934512;29;20052;-80
2022/03/28 09:36:38;;;;;;;2.65;1.48;;;;;;;14.05;78.87;99888.53;4933262;29;20134;-80
2022/03/28 09:39:08;;;;;;;3.65;1.27;;;;;;;14.00;79.39;99885.91;4934966;29;20107;-80
2022/03/28 09:41:37;;;;;;;5.28;1.30;;;;;;;13.95;81.17;99884.16;4934907;29;20048;-80
2022/03/28 09:44:08;;;;;;;1.85;0.90;;;;;;;13.94;82.93;99891.09;4936925;29;20502;-79
2022/03/28 09:46:39;;;;;;;3.95;1.65;;;;;;;13.95;83.65;99891.94;4934410;29;20085;-78
2022/03/28 09:49:08;;;;;;;4.55;1.63;;;;;;;13.91;83.58;99896.28;4934022;29;20423;-78
2022/03/28 09:51:37;;;;;;;2.78;1.70;;;;;;;13.92;83.97;99907.56;4933873;29;20619;-79
2022/03/28 09:54:19;;;;;;;3.33;1.70;;;;;;;13.91;84.76;99905.84;4934341;29;20047;-79
2022/03/28 09:57:02;;;;;;;;;;;;;;;13.88;84.94;99911.91;4934205;29;20048;-80
2022/03/28 09:59:39;;;;;;;5.68;1.83;;;;;;;13.85;84.26;99917.06;4933818;29;19962;-79
2022/03/28 10:02:20;;;;;;;3.20;1.30;;;;;;;13.82;83.82;99922.28;4933949;29;20047;-80
2022/03/28 10:04:51;;;;;;;3.65;1.30;;;;;;;13.78;83.14;99923.13;4933574;29;20134;-81
2022/03/28 10:07:19;;;;;;;2.35;1.20;;;;;;;13.78;82.94;99926.59;4933687;29;20047;-81
2022/03/28 10:09:49;;;;;;;6.65;1.63;;;;;;;13.73;82.66;99922.25;4933876;29;20439;-79
2022/03/28 10:12:20;;;;;;;5.18;1.67;;;;;;;13.74;81.69;99944.78;4936764;28;20131;-79
2022/03/28 10:14:54;;;;;;;4.40;1.60;;;;;;;13.73;81.57;99940.44;4934036;29;20134;-79
2022/03/28 10:17:24;;;;;;;2.35;1.10;;;;;;;13.71;81.65;99934.38;4933767;29;20047;-79
2022/03/28 10:19:53;;;;;;;1.33;0.70;;;;;;;13.71;81.38;99940.44;4933648;29;20055;-79
2022/03/28 10:22:27;;;;;;;2.67;1.10;;;;;;;13.70;80.92;99940.41;4932900;29;20047;-79
2022/03/28 10:25:00;;;;;;;1.63;1.00;;;;;;;13.66;81.18;99946.50;4933635;29;20493;-79
2022/03/28 10:27:29;;;;;;;4.22;1.15;;;;;;;13.60;81.19;99950.78;4933362;29;20055;-80
2022/03/28 10:30:11;;;;;;;4.38;1.25;;;;;;;13.60;81.64;99952.50;4933073;29;20499;-79
2022/03/28 10:32:40;;;;;;;1.60;1.25;;;;;;;13.59;80.58;99959.44;4932694;29;20116;-80
2022/03/28 10:35:10;;;;;;;3.10;1.08;;;;;;;13.61;79.89;99960.34;4932910;29;20055;-79
2022/03/28 10:37:40;;;;;;;5.75;0.98;;;;;;;13.57;79.75;99958.56;4932689;29;20083;-80
2022/03/28 10:40:23;;;;;;;3.22;1.10;;;;;;;13.59;79.62;99964.66;4933600;29;20544;-80
2022/03/28 10:42:53;;;;;;;;;;;;;;;13.60;80.31;99963.78;4928079;29;20047;-80
2022/03/28 10:45:32;;;;;;;4.20;1.33;;;;;;;13.53;79.99;99956.81;4933192;29;20404;-81
2022/03/28 10:48:00;;;;;;;6.50;1.50;;;;;;;13.56;79.35;99961.16;4932584;29;20052;-80
2022/03/28 10:50:36;;;;;;;4.25;1.00;;;;;;;13.55;79.60;99968.09;4931910;29;20139;-80
2022/03/28 10:53:15;;;;;;;2.45;0.98;;;;;;;13.47;79.52;99958.50;4932448;29;20054;-80
2022/03/28 10:55:47;;;;;;;2.17;1.10;;;;;;;13.41;79.61;99964.56;4932206;29;20051;-81
2022/03/28 10:58:23;;;;;;;2.22;1.05;;;;;;;13.35;79.79;99970.63;4932076;29;20517;-81
2022/03/28 11:01:18;;;;;;;5.75;1.42;;;;;;;13.36;79.50;99979.28;4932425;29;20130;-82
2022/03/28 11:03:49;;;;;;;5.95;1.30;;;;;;;13.36;78.89;99974.94;4932107;29;20490;-81
2022/03/28 11:06:19;;;;;;;4.72;1.30;;;;;;;13.38;79.33;99985.34;4932893;29;20052;-80
2022/03/28 11:09:00;;;;;;;2.50;1.10;;;;;;;13.32;80.85;99982.69;4935197;29;20054;-80
2022/03/28 11:11:32;;;;;;;3.95;1.20;;;;;;;13.24;79.16;99984.34;4934146;29;20047;-81
2022/03/28 11:14:03;;;;;;;;;;;;;;;13.14;78.93;99986.88;4893510;29;20061;-81
2022/03/28 11:16:44;;;;;;;2.90;1.35;;;;;;;13.15;79.14;99986.03;4875458;29;19928;-80
2022/03/28 11:19:29;;;;;;;5.22;1.38;;;;;;;13.17;79.97;99986.91;4881775;29;20078;-80
2022/03/28 11:22:00;;;;;;;3.67;1.25;;;;;;;13.17;79.69;99984.31;4894809;29;20056;-80
2022/03/28 11:24:52;;;;;;;2.38;1.00;;;;;;;13.14;78.97;99984.28;4894517;29;20131;-81
2022/03/28 11:27:21;;;;;;;1.80;0.88;;;;;;;13.10;80.14;99989.44;4894483;29;20052;-79
2022/03/28 11:29:50;;;;;;;1.80;1.00;;;;;;;13.00;81.44;99994.56;4894069;29;20091;-80
2022/03/28 11:32:21;;;;;;;1.60;0.93;;;;;;;12.94;80.51;99996.25;4893854;29;20129;-79
2022/03/28 11:34:53;;;;;;;3.08;0.73;;;;;;;12.84;80.39;99984.06;4894528;29;20749;-80
2022/03/28 11:37:24;;;;;;;1.00;0.80;;;;;;;12.82;80.96;99996.16;4894292;29;20095;-79
2022/03/28 11:39:54;;;;;;;2.35;0.88;;;;;;;12.82;80.70;99985.78;4894304;29;20659;-79
2022/03/28 11:42:27;;;;;;;4.72;1.13;;;;;;;12.81;81.30;99989.25;4893961;29;20550;-79
2022/03/28 11:44:57;;;;;;;2.10;1.00;;;;;;;12.77;81.19;99985.75;4893515;29;20125;-79
2022/03/28 11:47:27;;;;;;;1.73;0.82;;;;;;;12.75;79.96;99984.84;4893298;29;20052;-81
2022/03/28 11:49:57;;;;;;;3.50;1.20;;;;;;;12.70;80.13;99989.16;4893867;29;20116;-80